Time;durP1;ratioP1;P1;durP2;ratioP2;P2;SDS_P1;SDS_P2;PMS_P1;PMS_P2;Temp;Humidity;BMP_temperature;BMP_pressure;BME280_temperature;BME280_humidity;BME280_pressure;Samples;Min_cycle;Max_cycle;Signal;HPM_P1;HPM_P2
2021/09/14 00:02:20;;;;;;;15.32;9.98;;;;;;;;;;5064012;28;20033;-66
2021/09/14 00:04:46;;;;;;;13.38;9.95;;;;;;;;;;5061895;28;20021;-66
2021/09/14 00:07:12;;;;;;;13.95;10.65;;;;;;;;;;5065104;28;20109;-68
2021/09/14 00:09:38;;;;;;;15.40;10.85;;;;;;;;;;5066168;28;20109;-65
2021/09/14 00:12:05;;;;;;;13.23;10.50;;;;;;;;;;5066193;28;20460;-66
2021/09/14 00:14:31;;;;;;;14.00;11.05;;;;;;;;;;5065247;28;20116;-65
2021/09/14 00:16:57;;;;;;;17.25;11.80;;;;;;;;;;5066025;28;20025;-69
2021/09/14 00:19:23;;;;;;;18.90;11.23;;;;;;;;;;5066537;28;20026;-66
2021/09/14 00:21:50;;;;;;;14.75;12.02;;;;;;;;;;5066889;28;20021;-68
2021/09/14 00:24:16;;;;;;;15.73;10.88;;;;;;;;;;5066146;28;20513;-67
2021/09/14 00:26:42;;;;;;;15.18;11.05;;;;;;;;;;5066380;28;20017;-65
2021/09/14 00:29:08;;;;;;;17.05;12.13;;;;;;;;;;5065812;28;20034;-66
2021/09/14 00:31:34;;;;;;;18.42;12.40;;;;;;;;;;5065149;28;20021;-65
2021/09/14 00:34:00;;;;;;;16.15;11.40;;;;;;;;;;5065660;28;20029;-65
2021/09/14 00:36:26;;;;;;;13.98;11.68;;;;;;;;;;5066147;28;20021;-65
2021/09/14 00:38:52;;;;;;;15.88;11.55;;;;;;;;;;5065845;28;20367;-66
2021/09/14 00:41:18;;;;;;;18.02;12.10;;;;;;;;;;5065831;28;20075;-66
2021/09/14 00:43:54;;;;;;;16.55;12.40;;;;;;;;;;5064734;28;20025;-67
2021/09/14 00:46:20;;;;;;;17.60;12.55;;;;;;;;;;5064138;28;20397;-69
2021/09/14 00:48:46;;;;;;;17.58;12.55;;;;;;;;;;5065695;28;20025;-67
2021/09/14 00:51:12;;;;;;;15.63;11.90;;;;;;;;;;5065834;28;20155;-66
2021/09/14 00:53:38;;;;;;;15.88;12.82;;;;;;;;;;5065813;28;20028;-65
2021/09/14 00:56:05;;;;;;;17.52;12.18;;;;;;;;;;5065159;28;20029;-65
2021/09/14 00:58:31;;;;;;;17.17;11.52;;;;;;;;;;5066076;28;20434;-66
2021/09/14 01:00:57;;;;;;;17.00;12.30;;;;;;;;;;5065345;28;20028;-66
2021/09/14 01:03:23;;;;;;;15.57;12.52;;;;;;;;;;5065962;28;20052;-66
2021/09/14 01:05:50;;;;;;;16.85;12.38;;;;;;;;;;5066850;28;20130;-69
2021/09/14 01:08:17;;;;;;;14.85;11.13;;;;;;;;;;5069207;28;20029;-67
2021/09/14 01:10:44;;;;;;;15.35;11.95;;;;;;;;;;5068409;28;20029;-66
2021/09/14 01:13:10;;;;;;;15.50;12.05;;;;;;;;;;5069334;28;20021;-66
2021/09/14 01:15:40;;;;;;;16.02;12.43;;;;;;;;;;5069781;28;20025;-66
2021/09/14 01:18:06;;;;;;;16.45;11.52;;;;;;;;;;5067338;28;20036;-67
2021/09/14 01:20:32;;;;;;;15.40;12.35;;;;;;;;;;5069064;28;20032;-66
2021/09/14 01:22:59;;;;;;;19.40;12.57;;;;;;;;;;5070373;28;20025;-67
2021/09/14 01:25:25;;;;;;;17.38;12.60;;;;;;;;;;5070159;28;20025;-66
2021/09/14 01:27:52;;;;;;;18.23;12.55;;;;;;;;;;5068421;28;20021;-67
2021/09/14 01:30:19;;;;;;;17.73;13.05;;;;;;;;;;5070105;28;20052;-66
2021/09/14 01:32:46;;;;;;;19.15;12.48;;;;;;;;;;5069005;28;20033;-66
2021/09/14 01:35:31;;;;;;;18.50;13.45;;;;;;;;;;5068670;28;20029;-66
2021/09/14 01:38:01;;;;;;;16.77;12.70;;;;;;;;;;5069325;28;20021;-68
2021/09/14 01:40:27;;;;;;;18.50;13.98;;;;;;;;;;5068807;28;20017;-65
2021/09/14 01:42:53;;;;;;;18.15;13.10;;;;;;;;;;5068688;28;20028;-66
2021/09/14 01:45:19;;;;;;;17.15;12.38;;;;;;;;;;5069298;28;20017;-65
2021/09/14 01:47:46;;;;;;;19.45;13.05;;;;;;;;;;5069472;28;20021;-68
2021/09/14 01:50:13;;;;;;;18.33;13.55;;;;;;;;;;5068832;28;20029;-66
2021/09/14 01:52:39;;;;;;;19.67;14.18;;;;;;;;;;5068726;28;20131;-68
2021/09/14 01:55:06;;;;;;;23.27;16.85;;;;;;;;;;5068660;28;20051;-66
2021/09/14 01:57:38;;;;;;;23.27;18.23;;;;;;;;;;5068572;28;20051;-65
2021/09/14 02:00:06;;;;;;;23.10;17.67;;;;;;;;;;5068331;28;20088;-66
2021/09/14 02:03:07;;;;;;;22.92;15.18;;;;;;;;;;5068241;28;20025;-66
2021/09/14 03:00:16;;;;;;;15.25;11.15;;;;;;;;;;5067786;28;20048;-65
2021/09/14 03:02:44;;;;;;;17.30;11.25;;;;;;;;;;5067221;28;20383;-66
2021/09/14 03:05:11;;;;;;;14.35;11.52;;;;;;;;;;5067183;28;20029;-66
2021/09/14 03:07:37;;;;;;;13.55;11.05;;;;;;;;;;5086497;28;20075;-66
2021/09/14 03:10:03;;;;;;;16.25;10.77;;;;;;;;;;5087891;28;20033;-66
2021/09/14 03:12:29;;;;;;;14.07;10.50;;;;;;;;;;5087446;28;20111;-66
2021/09/14 03:14:56;;;;;;;14.57;10.52;;;;;;;;;;5087290;28;20028;-67
2021/09/14 03:17:22;;;;;;;14.60;11.65;;;;;;;;;;5085545;28;20036;-65
2021/09/14 03:19:48;;;;;;;13.18;9.93;;;;;;;;;;5087358;28;20084;-65
2021/09/14 03:22:14;;;;;;;16.38;10.63;;;;;;;;;;5086515;28;20043;-66
2021/09/14 03:24:40;;;;;;;15.27;10.40;;;;;;;;;;5086788;28;20025;-66
2021/09/14 03:27:06;;;;;;;15.45;11.50;;;;;;;;;;5086644;28;20040;-66
2021/09/14 03:29:32;;;;;;;13.88;10.73;;;;;;;;;;5086169;28;20028;-66
2021/09/14 03:31:58;;;;;;;17.20;10.95;;;;;;;;;;5086561;28;20103;-68
2021/09/14 03:34:25;;;;;;;12.52;9.38;;;;;;;;;;5086192;28;20056;-66
2021/09/14 03:36:51;;;;;;;12.90;10.02;;;;;;;;;;5086323;28;20090;-66
2021/09/14 03:39:17;;;;;;;15.48;9.73;;;;;;;;;;5086901;28;20021;-66
2021/09/14 03:41:43;;;;;;;12.70;9.68;;;;;;;;;;5086212;28;20024;-66
2021/09/14 03:44:09;;;;;;;14.60;10.55;;;;;;;;;;5086175;28;20029;-68
2021/09/14 03:46:35;;;;;;;12.20;9.68;;;;;;;;;;5086398;28;20051;-66
2021/09/14 03:49:02;;;;;;;13.80;9.75;;;;;;;;;;5087398;28;20110;-68
2021/09/14 03:51:29;;;;;;;16.63;9.75;;;;;;;;;;5087474;28;20059;-67
2021/09/14 03:53:55;;;;;;;12.15;9.73;;;;;;;;;;5085948;28;20017;-69
2021/09/14 03:56:21;;;;;;;15.35;10.32;;;;;;;;;;5084741;28;20028;-65
2021/09/14 03:58:47;;;;;;;14.00;10.27;;;;;;;;;;5084838;28;20028;-68
2021/09/14 04:01:14;;;;;;;13.45;10.27;;;;;;;;;;5085991;28;20076;-66
2021/09/14 04:03:44;;;;;;;12.68;10.48;;;;;;;;;;5086257;28;20532;-68
2021/09/14 04:08:56;;;;;;;;;;;;;;;;;;5086720;28;20036;-65
2021/09/14 04:11:22;;;;;;;11.57;9.57;;;;;;;;;;5086237;28;19904;-65
2021/09/14 04:13:49;;;;;;;13.02;10.40;;;;;;;;;;5085904;28;20444;-66
2021/09/14 04:16:16;;;;;;;16.17;9.95;;;;;;;;;;5086070;28;20059;-65
2021/09/14 04:18:42;;;;;;;12.35;9.73;;;;;;;;;;5086300;28;20024;-66
2021/09/14 04:21:08;;;;;;;14.32;10.07;;;;;;;;;;5086063;28;20035;-65
2021/09/14 04:23:34;;;;;;;15.95;10.80;;;;;;;;;;5086117;28;20021;-65
2021/09/14 04:26:00;;;;;;;14.35;10.63;;;;;;;;;;5084317;28;20028;-66
2021/09/14 04:28:26;;;;;;;16.20;11.32;;;;;;;;;;5085574;28;20025;-66
2021/09/14 04:30:52;;;;;;;14.50;10.65;;;;;;;;;;5086547;28;20089;-66
2021/09/14 04:33:18;;;;;;;16.63;10.90;;;;;;;;;;5086316;28;20494;-65
2021/09/14 04:35:44;;;;;;;16.30;10.63;;;;;;;;;;5086009;28;20025;-65
2021/09/14 04:38:10;;;;;;;15.50;10.45;;;;;;;;;;5085805;28;20028;-66
2021/09/14 04:40:37;;;;;;;16.80;11.40;;;;;;;;;;5087104;28;20052;-66
2021/09/14 04:43:03;;;;;;;14.45;10.80;;;;;;;;;;5089556;28;20055;-67
2021/09/14 04:45:29;;;;;;;13.85;10.85;;;;;;;;;;5089635;28;20475;-66
2021/09/14 04:47:55;;;;;;;13.20;10.20;;;;;;;;;;5089901;28;20021;-67
2021/09/14 04:50:21;;;;;;;16.40;12.05;;;;;;;;;;5090010;28;20056;-68
2021/09/14 04:52:47;;;;;;;15.90;12.43;;;;;;;;;;5089754;28;20028;-65
2021/09/14 04:55:13;;;;;;;14.85;10.27;;;;;;;;;;5089168;28;20032;-71
2021/09/14 04:57:39;;;;;;;14.90;10.80;;;;;;;;;;5089304;28;20398;-66
2021/09/14 05:00:06;;;;;;;14.50;11.13;;;;;;;;;;5089318;28;20074;-68
2021/09/14 05:02:32;;;;;;;15.63;10.65;;;;;;;;;;5089310;28;20023;-66
2021/09/14 05:04:58;;;;;;;13.77;10.40;;;;;;;;;;5087871;28;20096;-66
2021/09/14 05:07:24;;;;;;;13.50;10.23;;;;;;;;;;5088853;28;20048;-65
2021/09/14 05:09:50;;;;;;;15.75;10.73;;;;;;;;;;5089570;28;20088;-66
2021/09/14 05:12:16;;;;;;;14.07;11.45;;;;;;;;;;5089257;28;20025;-65
2021/09/14 05:14:43;;;;;;;14.40;10.95;;;;;;;;;;5089102;28;20029;-66
2021/09/14 05:17:09;;;;;;;13.93;10.65;;;;;;;;;;5088924;28;20448;-66
2021/09/14 05:19:38;;;;;;;16.88;11.70;;;;;;;;;;5087642;28;20027;-66
2021/09/14 05:22:04;;;;;;;17.05;11.43;;;;;;;;;;5088949;28;20021;-66
2021/09/14 05:24:31;;;;;;;18.25;11.35;;;;;;;;;;5088438;28;20542;-66
2021/09/14 05:26:58;;;;;;;15.70;10.48;;;;;;;;;;5088314;28;20032;-65
2021/09/14 05:29:24;;;;;;;15.25;11.00;;;;;;;;;;5089698;28;20028;-66
2021/09/14 05:31:51;;;;;;;14.00;10.43;;;;;;;;;;5088580;28;20367;-67
2021/09/14 05:34:17;;;;;;;16.40;11.10;;;;;;;;;;5088607;28;20028;-65
2021/09/14 05:36:44;;;;;;;15.15;10.95;;;;;;;;;;5088815;28;20063;-69
2021/09/14 05:39:10;;;;;;;17.20;11.60;;;;;;;;;;5088468;28;20016;-68
2021/09/14 05:41:36;;;;;;;17.58;11.98;;;;;;;;;;5088611;28;20051;-65
2021/09/14 05:44:02;;;;;;;14.63;11.57;;;;;;;;;;5089414;28;20012;-66
2021/09/14 05:46:28;;;;;;;15.43;10.23;;;;;;;;;;5088970;28;20028;-66
2021/09/14 05:48:54;;;;;;;18.50;11.10;;;;;;;;;;5088654;28;20024;-68
2021/09/14 05:51:20;;;;;;;15.68;11.63;;;;;;;;;;5088764;28;20033;-66
2021/09/14 05:53:47;;;;;;;16.63;12.57;;;;;;;;;;5088524;28;20084;-68
2021/09/14 05:56:13;;;;;;;14.35;11.63;;;;;;;;;;5088295;28;20036;-66
2021/09/14 05:58:39;;;;;;;20.75;13.15;;;;;;;;;;5088486;28;20058;-66
2021/09/14 06:01:05;;;;;;;17.98;11.95;;;;;;;;;;5088832;28;20021;-66
2021/09/14 06:03:33;;;;;;;15.73;11.00;;;;;;;;;;5088494;28;20016;-69
2021/09/14 06:05:59;;;;;;;15.55;11.85;;;;;;;;;;5087956;28;20123;-66
2021/09/14 06:08:25;;;;;;;19.65;13.07;;;;;;;;;;5088950;28;20062;-68
2021/09/14 06:10:51;;;;;;;20.35;12.80;;;;;;;;;;5088461;28;20088;-65
2021/09/14 06:13:18;;;;;;;16.00;11.95;;;;;;;;;;5087419;28;20028;-66
2021/09/14 06:15:44;;;;;;;17.77;11.82;;;;;;;;;;5088461;28;20024;-66
2021/09/14 06:18:10;;;;;;;19.30;12.10;;;;;;;;;;5089422;28;20024;-66
2021/09/14 06:20:36;;;;;;;19.92;13.35;;;;;;;;;;5088123;28;20045;-66
2021/09/14 06:23:02;;;;;;;17.85;12.55;;;;;;;;;;5088115;28;20080;-65
2021/09/14 06:25:28;;;;;;;17.70;12.07;;;;;;;;;;5088158;28;20025;-66
2021/09/14 06:27:54;;;;;;;19.30;12.60;;;;;;;;;;5089199;28;20034;-66
2021/09/14 06:30:21;;;;;;;19.67;12.63;;;;;;;;;;5087973;28;20049;-65
2021/09/14 06:32:47;;;;;;;16.63;12.73;;;;;;;;;;5088285;28;20085;-65
2021/09/14 06:35:13;;;;;;;19.77;13.05;;;;;;;;;;5087893;28;20031;-68
2021/09/14 06:37:39;;;;;;;17.83;13.55;;;;;;;;;;5087747;28;20525;-65
2021/09/14 06:40:05;;;;;;;18.15;12.27;;;;;;;;;;5088143;28;20021;-66
2021/09/14 06:42:31;;;;;;;19.42;12.88;;;;;;;;;;5087802;28;20032;-67
2021/09/14 06:44:58;;;;;;;19.23;13.43;;;;;;;;;;5087762;28;20020;-66
2021/09/14 06:47:24;;;;;;;17.80;13.48;;;;;;;;;;5088096;28;20077;-65
2021/09/14 06:49:50;;;;;;;18.85;14.80;;;;;;;;;;5087578;28;20101;-67
2021/09/14 06:52:17;;;;;;;20.63;13.27;;;;;;;;;;5088073;28;20060;-66
2021/09/14 06:54:43;;;;;;;18.25;11.57;;;;;;;;;;5088121;28;20055;-65
2021/09/14 06:57:09;;;;;;;18.48;13.43;;;;;;;;;;5086170;28;20063;-68
2021/09/14 06:59:35;;;;;;;19.80;12.93;;;;;;;;;;5075302;28;20021;-68
2021/09/14 07:02:01;;;;;;;18.70;12.70;;;;;;;;;;5046872;28;20147;-66
2021/09/14 07:04:28;;;;;;;17.75;12.45;;;;;;;;;;5078822;28;20025;-66
2021/09/14 07:06:54;;;;;;;20.50;12.98;;;;;;;;;;5047241;28;20056;-67
2021/09/14 07:09:20;;;;;;;19.48;12.60;;;;;;;;;;5047002;28;20024;-65
2021/09/14 07:11:46;;;;;;;19.08;13.07;;;;;;;;;;5047367;28;20041;-65
2021/09/14 07:14:12;;;;;;;19.13;12.98;;;;;;;;;;5046910;28;20032;-67
2021/09/14 07:16:38;;;;;;;18.48;12.73;;;;;;;;;;5047110;28;20032;-68
2021/09/14 07:19:05;;;;;;;20.95;13.35;;;;;;;;;;5047057;28;20031;-67
2021/09/14 07:21:31;;;;;;;23.02;13.27;;;;;;;;;;5046379;28;20026;-66
2021/09/14 07:23:57;;;;;;;19.25;13.52;;;;;;;;;;5044440;28;20022;-66
2021/09/14 07:26:23;;;;;;;19.52;12.70;;;;;;;;;;5046352;28;20025;-67
2021/09/14 07:28:49;;;;;;;19.77;13.20;;;;;;;;;;5066212;28;20021;-67
2021/09/14 07:31:15;;;;;;;30.45;17.17;;;;;;;;;;5066812;28;20028;-67
2021/09/14 07:33:42;;;;;;;27.15;18.80;;;;;;;;;;5066577;28;20032;-66
2021/09/14 07:36:08;;;;;;;24.65;14.43;;;;;;;;;;5066774;28;20079;-68
2021/09/14 07:38:40;;;;;;;37.78;24.10;;;;;;;;;;5066954;28;20025;-67
2021/09/14 07:41:06;;;;;;;37.80;24.85;;;;;;;;;;5066701;28;20021;-66
2021/09/14 07:43:32;;;;;;;31.65;21.60;;;;;;;;;;5066538;28;20025;-68
2021/09/14 07:45:58;;;;;;;17.17;12.65;;;;;;;;;;5066895;28;20032;-66
2021/09/14 07:48:25;;;;;;;18.30;12.48;;;;;;;;;;5066957;28;20031;-66
2021/09/14 07:50:51;;;;;;;18.23;12.30;;;;;;;;;;5066913;28;20040;-68
2021/09/14 07:53:17;;;;;;;18.15;12.88;;;;;;;;;;5066540;28;20021;-67
2021/09/14 07:55:43;;;;;;;20.02;12.73;;;;;;;;;;5065839;28;20075;-68
2021/09/14 07:58:09;;;;;;;16.63;12.13;;;;;;;;;;5063450;28;20033;-73
2021/09/14 08:00:35;;;;;;;18.92;12.23;;;;;;;;;;5063263;28;20064;-70
2021/09/14 08:03:01;;;;;;;14.77;11.15;;;;;;;;;;5060390;28;20029;-75
2021/09/14 08:05:28;;;;;;;16.67;11.40;;;;;;;;;;5060615;28;20096;-71
2021/09/14 08:07:54;;;;;;;13.95;10.60;;;;;;;;;;5057634;28;20025;-67
2021/09/14 08:10:20;;;;;;;17.08;11.05;;;;;;;;;;5061472;28;20029;-70
2021/09/14 08:12:47;;;;;;;15.75;11.43;;;;;;;;;;5062451;28;20025;-66
2021/09/14 08:15:13;;;;;;;15.63;9.93;;;;;;;;;;5061037;28;20039;-71
2021/09/14 08:17:39;;;;;;;19.50;10.85;;;;;;;;;;5064590;28;20028;-72
2021/09/14 08:20:09;;;;;;;17.92;9.80;;;;;;;;;;5061534;28;20025;-66
2021/09/14 08:22:35;;;;;;;15.57;10.50;;;;;;;;;;5065743;28;20047;-69
2021/09/14 08:25:01;;;;;;;14.95;11.10;;;;;;;;;;5068492;28;20067;-75
2021/09/14 08:27:27;;;;;;;24.45;14.45;;;;;;;;;;5066373;28;20586;-73
2021/09/14 08:29:53;;;;;;;15.32;11.07;;;;;;;;;;5063886;28;20017;-72
2021/09/14 08:32:19;;;;;;;17.85;11.98;;;;;;;;;;5066554;28;20022;-74
2021/09/14 08:34:45;;;;;;;25.58;11.40;;;;;;;;;;5064117;28;20384;-73
2021/09/14 08:37:12;;;;;;;14.55;9.77;;;;;;;;;;5083578;28;20368;-69
2021/09/14 08:39:38;;;;;;;13.07;9.25;;;;;;;;;;5088926;28;20024;-71
2021/09/14 08:42:04;;;;;;;11.70;7.70;;;;;;;;;;5087714;28;20024;-65
2021/09/14 08:44:30;;;;;;;14.52;7.43;;;;;;;;;;5088040;28;20017;-70
2021/09/14 08:46:56;;;;;;;9.77;8.00;;;;;;;;;;5088342;28;20021;-65
2021/09/14 08:49:22;;;;;;;12.68;7.65;;;;;;;;;;5089357;28;20080;-66
2021/09/14 08:51:48;;;;;;;9.25;6.60;;;;;;;;;;5086470;28;20032;-66
2021/09/14 08:54:14;;;;;;;7.35;5.47;;;;;;;;;;5088582;28;20024;-66
2021/09/14 08:56:40;;;;;;;8.10;5.80;;;;;;;;;;5089703;28;20043;-66
2021/09/14 08:59:06;;;;;;;8.15;6.57;;;;;;;;;;5089109;28;20042;-65
2021/09/14 09:01:33;;;;;;;8.18;5.68;;;;;;;;;;5089256;28;20028;-66
2021/09/14 09:04:00;;;;;;;8.60;5.88;;;;;;;;;;5089742;28;20024;-66
2021/09/14 09:06:44;;;;;;;6.85;5.47;;;;;;;;;;5088994;28;20068;-66
2021/09/14 09:09:16;;;;;;;6.03;5.38;;;;;;;;;;5089487;28;20024;-66
2021/09/14 09:11:58;;;;;;;8.02;6.15;;;;;;;;;;5089330;28;20042;-66
2021/09/14 09:14:37;;;;;;;8.27;5.85;;;;;;;;;;5089152;28;20024;-66
2021/09/14 09:17:23;;;;;;;8.05;6.32;;;;;;;;;;5088250;28;20029;-66
2021/09/14 09:19:55;;;;;;;8.88;7.03;;;;;;;;;;5087916;28;20020;-69
2021/09/14 09:22:22;;;;;;;9.88;6.38;;;;;;;;;;5087049;28;20021;-69
2021/09/14 09:24:49;;;;;;;9.75;6.43;;;;;;;;;;5087071;28;20032;-67
2021/09/14 09:27:17;;;;;;;11.32;6.65;;;;;;;;;;5085613;28;20029;-67
2021/09/14 09:29:43;;;;;;;9.52;6.28;;;;;;;;;;5086835;28;20033;-68
2021/09/14 09:32:10;;;;;;;9.73;6.43;;;;;;;;;;5087625;28;20028;-69
2021/09/14 09:34:36;;;;;;;8.25;6.50;;;;;;;;;;5085792;28;20532;-69
2021/09/14 09:37:04;;;;;;;8.80;6.88;;;;;;;;;;5088406;28;20394;-66
2021/09/14 09:39:42;;;;;;;9.32;6.18;;;;;;;;;;5087141;28;20016;-66
2021/09/14 09:42:09;;;;;;;10.05;6.30;;;;;;;;;;5088243;28;20478;-64
2021/09/14 09:44:35;;;;;;;9.73;6.32;;;;;;;;;;5088464;28;20029;-68
2021/09/14 09:47:01;;;;;;;7.80;5.18;;;;;;;;;;5074643;28;20071;-66
2021/09/14 09:49:28;;;;;;;5.25;4.05;;;;;;;;;;5065012;28;20487;-66
2021/09/14 09:51:56;;;;;;;6.45;4.32;;;;;;;;;;5066328;28;20036;-67
2021/09/14 09:54:22;;;;;;;5.28;4.45;;;;;;;;;;5065541;28;20085;-66
2021/09/14 09:56:49;;;;;;;6.90;4.53;;;;;;;;;;5067718;28;20379;-71
2021/09/14 09:59:16;;;;;;;4.15;3.65;;;;;;;;;;5067623;28;20100;-68
2021/09/14 10:01:42;;;;;;;7.18;4.00;;;;;;;;;;5066245;28;20021;-67
2021/09/14 10:04:08;;;;;;;5.28;4.30;;;;;;;;;;5068349;28;20036;-69
2021/09/14 10:06:36;;;;;;;5.03;4.03;;;;;;;;;;5069797;28;20105;-67
2021/09/14 10:09:02;;;;;;;5.60;3.70;;;;;;;;;;5061952;28;20103;-67
2021/09/14 10:11:30;;;;;;;4.63;3.22;;;;;;;;;;5067460;28;20038;-66
2021/09/14 10:14:05;;;;;;;5.10;3.90;;;;;;;;;;5067968;28;20052;-66
2021/09/14 10:16:39;;;;;;;6.05;4.03;;;;;;;;;;5067127;28;20047;-66
2021/09/14 10:19:31;;;;;;;4.00;3.40;;;;;;;;;;5065442;28;20021;-77
2021/09/14 10:22:00;;;;;;;5.40;4.13;;;;;;;;;;5066692;28;20040;-65
2021/09/14 10:24:27;;;;;;;8.23;4.80;;;;;;;;;;5067961;28;20100;-67
2021/09/14 10:27:13;;;;;;;5.88;4.93;;;;;;;;;;5067881;28;20033;-66
2021/09/14 10:29:40;;;;;;;8.10;4.18;;;;;;;;;;5067667;28;20059;-67
2021/09/14 10:32:07;;;;;;;3.33;2.97;;;;;;;;;;5067449;28;20029;-66
2021/09/14 10:34:36;;;;;;;2.47;2.05;;;;;;;;;;5067502;28;20050;-66
2021/09/14 10:37:07;;;;;;;2.55;2.20;;;;;;;;;;5067283;28;20028;-67
2021/09/14 10:39:35;;;;;;;3.13;2.60;;;;;;;;;;5066683;28;20022;-65
2021/09/14 10:42:12;;;;;;;3.90;3.05;;;;;;;;;;5064382;28;20424;-67
2021/09/14 10:44:41;;;;;;;4.15;3.20;;;;;;;;;;5065780;28;20420;-67
2021/09/14 10:47:08;;;;;;;3.10;2.80;;;;;;;;;;5065391;28;20552;-69
2021/09/14 10:50:00;;;;;;;4.32;2.88;;;;;;;;;;5064853;28;20381;-67
2021/09/14 10:52:32;;;;;;;5.65;3.83;;;;;;;;;;5065967;28;20025;-67
2021/09/14 10:54:58;;;;;;;4.82;3.58;;;;;;;;;;5056669;28;20028;-69
2021/09/14 10:57:34;;;;;;;5.88;3.03;;;;;;;;;;5040170;28;20622;-75
2021/09/14 11:00:03;;;;;;;4.45;2.90;;;;;;;;;;5059919;28;20399;-69
2021/09/14 11:02:30;;;;;;;4.60;3.30;;;;;;;;;;5060189;28;20021;-67
2021/09/14 11:04:59;;;;;;;3.80;3.20;;;;;;;;;;5085498;28;20471;-68
2021/09/14 11:07:25;;;;;;;4.13;3.33;;;;;;;;;;5086388;28;20072;-67
2021/09/14 11:09:56;;;;;;;3.42;2.85;;;;;;;;;;5087313;28;20021;-68
2021/09/14 11:12:23;;;;;;;4.85;3.17;;;;;;;;;;5086692;28;20024;-67
2021/09/14 11:14:49;;;;;;;5.53;3.22;;;;;;;;;;5085797;28;20034;-66
2021/09/14 11:17:41;;;;;;;6.60;3.50;;;;;;;;;;5086617;28;20025;-66
2021/09/14 11:20:09;;;;;;;4.72;3.60;;;;;;;;;;5085397;28;20036;-69
2021/09/14 11:22:37;;;;;;;5.47;2.80;;;;;;;;;;5086999;28;20019;-68
2021/09/14 11:25:04;;;;;;;5.32;3.42;;;;;;;;;;5086751;28;20025;-66
2021/09/14 11:27:31;;;;;;;5.60;3.63;;;;;;;;;;5086355;28;20039;-66
2021/09/14 11:29:58;;;;;;;3.55;3.17;;;;;;;;;;5085510;28;20395;-67
2021/09/14 11:32:27;;;;;;;3.70;3.15;;;;;;;;;;5079074;28;20037;-66
2021/09/14 11:34:54;;;;;;;5.80;3.42;;;;;;;;;;5083600;28;20048;-68
2021/09/14 11:37:27;;;;;;;4.78;3.45;;;;;;;;;;5080199;28;20348;-70
2021/09/14 11:39:54;;;;;;;4.32;3.38;;;;;;;;;;5086024;28;20021;-71
2021/09/14 11:42:20;;;;;;;3.30;2.92;;;;;;;;;;5081872;28;20025;-74
2021/09/14 11:44:46;;;;;;;5.00;3.35;;;;;;;;;;5082884;28;20029;-66
2021/09/14 11:47:12;;;;;;;4.47;3.20;;;;;;;;;;5078503;28;20042;-77
2021/09/14 11:49:39;;;;;;;5.50;3.25;;;;;;;;;;5061168;28;20057;-71
2021/09/14 11:52:05;;;;;;;4.15;3.10;;;;;;;;;;5063044;28;20154;-70
2021/09/14 11:54:36;;;;;;;3.90;3.08;;;;;;;;;;5060606;28;20037;-73
2021/09/14 11:57:02;;;;;;;3.90;3.17;;;;;;;;;;5059921;28;20361;-75
2021/09/14 11:59:32;;;;;;;3.10;2.80;;;;;;;;;;5047887;28;20029;-66
2021/09/14 12:01:58;;;;;;;4.07;3.00;;;;;;;;;;5043649;28;20025;-67
2021/09/14 12:04:24;;;;;;;3.20;2.85;;;;;;;;;;5035831;28;20569;-75
2021/09/14 12:06:55;;;;;;;5.05;3.70;;;;;;;;;;5033616;28;20423;-74
2021/09/14 12:09:22;;;;;;;5.47;3.25;;;;;;;;;;5037826;28;20029;-74
2021/09/14 12:11:58;;;;;;;3.80;3.17;;;;;;;;;;5036321;28;20033;-68
2021/09/14 12:14:26;;;;;;;5.68;3.67;;;;;;;;;;5037022;28;20030;-74
2021/09/14 12:16:58;;;;;;;4.90;3.47;;;;;;;;;;5037784;28;20032;-72
2021/09/14 12:19:24;;;;;;;4.65;3.92;;;;;;;;;;5036324;28;20026;-67
2021/09/14 12:21:50;;;;;;;4.10;3.33;;;;;;;;;;5035161;28;20388;-71
2021/09/14 12:24:16;;;;;;;4.82;3.58;;;;;;;;;;5044846;28;20103;-73
2021/09/14 12:26:45;;;;;;;4.18;3.40;;;;;;;;;;5057714;28;20025;-66
2021/09/14 12:29:12;;;;;;;4.93;3.30;;;;;;;;;;5055072;28;20036;-73
2021/09/14 12:31:38;;;;;;;4.82;3.35;;;;;;;;;;5058781;28;20025;-76
2021/09/14 12:34:05;;;;;;;4.53;3.67;;;;;;;;;;5056679;28;20100;-74
2021/09/14 12:36:31;;;;;;;4.53;3.30;;;;;;;;;;5058598;28;20699;-71
2021/09/14 12:38:57;;;;;;;4.65;3.53;;;;;;;;;;5054776;28;20727;-75
2021/09/14 12:41:23;;;;;;;4.70;4.30;;;;;;;;;;5053516;28;20104;-76
2021/09/14 12:43:51;;;;;;;4.93;3.95;;;;;;;;;;5054414;28;20013;-72
2021/09/14 12:46:18;;;;;;;7.70;4.45;;;;;;;;;;5063163;28;20071;-65
2021/09/14 12:48:44;;;;;;;5.07;3.83;;;;;;;;;;5065025;28;20108;-66
2021/09/14 12:51:18;;;;;;;8.75;5.00;;;;;;;;;;5065099;28;20025;-67
2021/09/14 12:53:44;;;;;;;6.00;4.70;;;;;;;;;;5065436;28;20025;-65
2021/09/14 12:56:10;;;;;;;4.93;4.20;;;;;;;;;;5064048;28;20036;-72
2021/09/14 12:58:36;;;;;;;5.72;4.68;;;;;;;;;;5065489;28;20171;-65
2021/09/14 13:01:03;;;;;;;5.05;4.30;;;;;;;;;;5066131;28;20098;-70
2021/09/14 13:03:29;;;;;;;7.07;4.70;;;;;;;;;;5068932;28;20033;-67
2021/09/14 13:05:55;;;;;;;5.43;4.00;;;;;;;;;;5069057;28;20116;-66
2021/09/14 13:08:21;;;;;;;7.10;4.75;;;;;;;;;;5069157;28;20029;-66
2021/09/14 13:10:47;;;;;;;6.82;4.55;;;;;;;;;;5069218;28;20036;-65
2021/09/14 13:16:10;;;;;;;7.38;4.75;;;;;;;;;;5057676;28;20132;-70
2021/09/14 13:18:37;;;;;;;8.93;5.05;;;;;;;;;;5052117;28;20415;-78
2021/09/14 13:21:06;;;;;;;6.40;5.25;;;;;;;;;;5038294;28;20139;-72
2021/09/14 13:23:33;;;;;;;6.38;4.97;;;;;;;;;;5037974;28;20613;-72
2021/09/14 13:25:59;;;;;;;7.82;5.82;;;;;;;;;;5053850;28;20033;-74
2021/09/14 13:28:25;;;;;;;6.95;5.53;;;;;;;;;;5042752;28;20018;-73
2021/09/14 13:30:51;;;;;;;7.05;5.43;;;;;;;;;;5042084;28;20551;-69
2021/09/14 13:33:17;;;;;;;6.50;4.78;;;;;;;;;;5070692;28;20043;-76
2021/09/14 13:35:43;;;;;;;6.03;4.70;;;;;;;;;;5038523;28;20025;-74
2021/09/14 13:38:10;;;;;;;7.82;5.60;;;;;;;;;;5045880;28;20392;-66
2021/09/14 13:40:38;;;;;;;5.97;5.32;;;;;;;;;;5043005;28;20022;-74
2021/09/14 13:43:04;;;;;;;6.53;5.07;;;;;;;;;;5044639;28;20053;-68
2021/09/14 13:48:30;;;;;;;6.85;5.35;;;;;;;;;;5050264;28;20043;-66
2021/09/14 13:50:56;;;;;;;6.93;5.60;;;;;;;;;;5068315;28;20032;-71
2021/09/14 13:53:22;;;;;;;5.78;4.85;;;;;;;;;;5067219;28;20029;-66
2021/09/14 13:55:49;;;;;;;5.88;4.78;;;;;;;;;;5066878;28;20036;-69
2021/09/14 13:58:16;;;;;;;6.93;5.13;;;;;;;;;;5065420;28;20040;-67
2021/09/14 14:00:42;;;;;;;10.20;5.20;;;;;;;;;;5064651;28;20031;-69
2021/09/14 14:03:11;;;;;;;6.68;4.93;;;;;;;;;;5068628;28;20025;-70
2021/09/14 14:05:40;;;;;;;7.18;4.93;;;;;;;;;;5068083;28;20042;-69
2021/09/14 14:08:06;;;;;;;8.02;5.32;;;;;;;;;;5067661;28;20037;-66
2021/09/14 14:10:32;;;;;;;6.70;4.88;;;;;;;;;;5068753;28;20033;-67
2021/09/14 14:12:59;;;;;;;4.97;4.47;;;;;;;;;;5068954;28;20025;-66
2021/09/14 14:15:25;;;;;;;5.70;4.78;;;;;;;;;;5068387;28;20035;-65
2021/09/14 14:17:51;;;;;;;6.88;5.15;;;;;;;;;;5068083;28;20048;-65
2021/09/14 14:20:17;;;;;;;6.95;4.50;;;;;;;;;;5067278;28;20025;-65
2021/09/14 14:22:43;;;;;;;5.50;4.50;;;;;;;;;;5068534;28;20418;-65
2021/09/14 14:25:10;;;;;;;7.88;5.68;;;;;;;;;;5068252;28;20104;-66
2021/09/14 14:27:36;;;;;;;6.88;5.07;;;;;;;;;;5066916;28;20086;-68
2021/09/14 14:30:09;;;;;;;7.18;5.40;;;;;;;;;;5067440;28;20021;-66
2021/09/14 14:32:35;;;;;;;9.07;5.38;;;;;;;;;;5066927;28;20029;-66
2021/09/14 14:35:02;;;;;;;7.82;5.45;;;;;;;;;;5066505;28;20037;-67
2021/09/14 14:37:28;;;;;;;7.78;5.60;;;;;;;;;;5067679;28;20053;-72
2021/09/14 14:39:56;;;;;;;6.57;5.47;;;;;;;;;;5065483;28;20075;-68
2021/09/14 14:42:22;;;;;;;6.65;4.97;;;;;;;;;;5067237;28;20019;-66
2021/09/14 14:44:48;;;;;;;6.68;5.32;;;;;;;;;;5065218;28;20443;-73
2021/09/14 14:47:14;;;;;;;7.70;5.63;;;;;;;;;;5066302;28;20174;-67
2021/09/14 14:49:40;;;;;;;6.85;5.85;;;;;;;;;;5067470;28;20021;-68
2021/09/14 14:52:06;;;;;;;6.43;4.72;;;;;;;;;;5067271;28;20037;-69
2021/09/14 14:54:32;;;;;;;5.57;4.82;;;;;;;;;;5067484;28;20107;-66
2021/09/14 14:56:59;;;;;;;7.65;5.30;;;;;;;;;;5067295;28;20032;-68
2021/09/14 14:59:25;;;;;;;7.47;4.93;;;;;;;;;;5067362;28;20368;-67
2021/09/14 15:01:51;;;;;;;6.70;5.70;;;;;;;;;;5065919;28;20013;-67
2021/09/14 15:04:18;;;;;;;7.25;5.47;;;;;;;;;;5065473;28;20033;-74
2021/09/14 15:06:45;;;;;;;9.13;5.50;;;;;;;;;;5045316;28;20045;-67
2021/09/14 15:09:11;;;;;;;5.95;5.07;;;;;;;;;;5046152;28;20030;-66
2021/09/14 15:11:39;;;;;;;8.32;5.60;;;;;;;;;;5044337;28;20172;-70
2021/09/14 15:14:05;;;;;;;6.85;4.97;;;;;;;;;;5042994;28;20035;-69
2021/09/14 15:16:33;;;;;;;6.57;4.85;;;;;;;;;;5045129;28;20049;-69
2021/09/14 15:19:00;;;;;;;5.55;5.03;;;;;;;;;;5041103;28;20053;-73
2021/09/14 15:21:26;;;;;;;7.15;5.10;;;;;;;;;;5041245;28;20029;-66
2021/09/14 15:23:52;;;;;;;6.57;4.88;;;;;;;;;;5042174;28;20029;-66
2021/09/14 15:26:18;;;;;;;7.10;4.53;;;;;;;;;;5044384;28;20052;-69
2021/09/14 15:28:44;;;;;;;5.07;4.43;;;;;;;;;;5042723;28;20104;-67
2021/09/14 15:31:10;;;;;;;6.25;4.70;;;;;;;;;;5042023;28;20384;-70
2021/09/14 15:33:39;;;;;;;4.95;4.45;;;;;;;;;;5043471;28;20033;-69
2021/09/14 15:36:05;;;;;;;5.65;4.57;;;;;;;;;;5041169;28;20522;-73